PRIVATE WETTERSTATION BILLIGHEIM-ALLFELD                       ZURCK
Wetterdaten: Freitag, 13.01.2017
Datum Zeit Temp. A. Temp. A. min Temp. A. max Feuchte A. Luftdruck Regen Wind Richtung Richtung Sonnenschein ET Solar Taupunkt Windchill Windben Empfang
13.01.2017 00:00 3,8 C 3,6 C 3,8 C 93 % 992,2 hPa 0,0 l/m 14,5 km/h (3 Bft) S-SO 157 0 min 0,000 mm 0 W/m 2,8 C -2,1 C 35,4 km/h (5 Bft) 100 %
13.01.2017 00:10 3,9 C 3,8 C 3,9 C 93 % 992,0 hPa 0,0 l/m 16,1 km/h (3 Bft) S-SO 157 0 min 0,000 mm 0 W/m 2,9 C -2,8 C 37,0 km/h (5 Bft) 99 %
13.01.2017 00:20 4,0 C 3,9 C 4,1 C 93 % 991,9 hPa 0,0 l/m 16,1 km/h (3 Bft) S-SO 157 0 min 0,000 mm 0 W/m 3,0 C -2,7 C 27,4 km/h (4 Bft) 100 %
13.01.2017 00:30 4,2 C 4,0 C 4,2 C 93 % 991,8 hPa 0,0 l/m 17,7 km/h (3 Bft) S-SO 157 0 min 0,000 mm 0 W/m 3,2 C -3,2 C 35,4 km/h (5 Bft) 100 %
13.01.2017 00:40 4,2 C 4,2 C 4,2 C 93 % 991,6 hPa 0,2 l/m 17,7 km/h (3 Bft) S-SO 157 0 min 0,000 mm 0 W/m 3,2 C -3,2 C 37,0 km/h (5 Bft) 100 %
13.01.2017 00:50 4,2 C 4,2 C 4,2 C 93 % 991,1 hPa 0,0 l/m 16,1 km/h (3 Bft) S 180 0 min 0,000 mm 0 W/m 3,2 C -2,5 C 32,2 km/h (5 Bft) 100 %
13.01.2017 01:00 4,3 C 4,2 C 4,3 C 93 % 991,3 hPa 0,0 l/m 16,1 km/h (3 Bft) S 180 0 min 0,000 mm 0 W/m 3,3 C -2,3 C 32,2 km/h (5 Bft) 90 %
13.01.2017 01:10 4,3 C 4,3 C 4,3 C 92 % 991,7 hPa 0,2 l/m 24,1 km/h (4 Bft) S-SW 202 0 min 0,000 mm 0 W/m 3,1 C -5,6 C 51,5 km/h (7 Bft) 100 %
13.01.2017 01:20 4,4 C 4,3 C 4,4 C 93 % 991,8 hPa 0,0 l/m 20,9 km/h (4 Bft) S-SW 202 0 min 0,000 mm 0 W/m 3,4 C -4,3 C 40,2 km/h (6 Bft) 100 %
13.01.2017 01:30 4,6 C 4,4 C 4,6 C 92 % 991,8 hPa 0,0 l/m 20,9 km/h (4 Bft) S-SW 202 0 min 0,000 mm 0 W/m 3,4 C -4,0 C 38,6 km/h (5 Bft) 100 %
13.01.2017 01:40 4,9 C 4,7 C 4,9 C 91 % 991,6 hPa 0,0 l/m 30,6 km/h (5 Bft) SW 225 0 min 0,000 mm 0 W/m 3,6 C -6,7 C 64,4 km/h (8 Bft) 100 %
13.01.2017 01:50 4,9 C 4,9 C 4,9 C 89 % 992,0 hPa 0,0 l/m 29,0 km/h (5 Bft) SW 225 0 min 0,000 mm 0 W/m 3,2 C -6,3 C 54,7 km/h (7 Bft) 100 %
13.01.2017 02:00 4,8 C 4,8 C 4,9 C 86 % 992,1 hPa 0,0 l/m 33,8 km/h (5 Bft) SW 225 0 min 0,025 mm 0 W/m 2,7 C -7,6 C 75,6 km/h (9 Bft) 100 %
13.01.2017 02:10 4,6 C 4,6 C 4,8 C 83 % 992,5 hPa 0,0 l/m 30,6 km/h (5 Bft) SW 225 0 min 0,000 mm 0 W/m 2,0 C -7,1 C 64,4 km/h (8 Bft) 100 %
13.01.2017 02:20 4,7 C 4,6 C 4,7 C 81 % 992,4 hPa 0,0 l/m 32,2 km/h (5 Bft) SW 225 0 min 0,000 mm 0 W/m 1,7 C -7,3 C 62,8 km/h (8 Bft) 100 %
13.01.2017 02:30 4,6 C 4,6 C 4,7 C 80 % 992,5 hPa 0,0 l/m 29,0 km/h (5 Bft) S-SW 202 0 min 0,000 mm 0 W/m 1,5 C -6,7 C 61,2 km/h (7 Bft) 100 %
13.01.2017 02:40 4,6 C 4,6 C 4,6 C 78 % 992,7 hPa 0,0 l/m 33,8 km/h (5 Bft) SW 225 0 min 0,000 mm 0 W/m 1,1 C -7,9 C 61,2 km/h (7 Bft) 100 %
13.01.2017 02:50 4,4 C 4,4 C 4,6 C 77 % 992,4 hPa 0,0 l/m 30,6 km/h (5 Bft) SW 225 0 min 0,000 mm 0 W/m 0,7 C -7,4 C 62,8 km/h (8 Bft) 100 %
13.01.2017 03:00 4,4 C 4,4 C 4,4 C 76 % 992,5 hPa 0,0 l/m 37,0 km/h (5 Bft) SW 225 0 min 0,051 mm 0 W/m 0,5 C -8,8 C 70,8 km/h (8 Bft) 90 %
13.01.2017 03:10 4,5 C 4,4 C 4,5 C 75 % 992,5 hPa 0,0 l/m 38,6 km/h (5 Bft) SW 225 0 min 0,000 mm 0 W/m 0,5 C -9,0 C 80,5 km/h (9 Bft) 100 %
13.01.2017 03:20 4,6 C 4,4 C 4,6 C 74 % 992,3 hPa 0,0 l/m 38,6 km/h (5 Bft) SW 225 0 min 0,000 mm 0 W/m 0,4 C -8,9 C 72,4 km/h (8 Bft) 100 %
13.01.2017 03:30 4,6 C 4,6 C 4,6 C 74 % 992,4 hPa 0,0 l/m 38,6 km/h (5 Bft) SW 225 0 min 0,000 mm 0 W/m 0,4 C -8,9 C 72,4 km/h (8 Bft) 100 %
13.01.2017 03:40 4,5 C 4,5 C 4,6 C 74 % 992,2 hPa 0,0 l/m 35,4 km/h (5 Bft) SW 225 0 min 0,000 mm 0 W/m 0,3 C -8,4 C 66,0 km/h (8 Bft) 100 %
13.01.2017 03:50 4,4 C 4,4 C 4,5 C 74 % 992,7 hPa 0,0 l/m 35,4 km/h (5 Bft) SW 225 0 min 0,000 mm 0 W/m 0,2 C -8,5 C 74,0 km/h (8 Bft) 100 %
13.01.2017 04:00 4,4 C 4,4 C 4,5 C 74 % 992,7 hPa 0,0 l/m 37,0 km/h (5 Bft) SW 225 0 min 0,076 mm 0 W/m 0,2 C -8,8 C 74,0 km/h (8 Bft) 100 %
13.01.2017 04:10 4,3 C 4,3 C 4,4 C 75 % 992,6 hPa 0,0 l/m 45,1 km/h (6 Bft) SW 225 0 min 0,000 mm 0 W/m 0,3 C -10,4 C 82,1 km/h (9 Bft) 100 %
13.01.2017 04:20 4,1 C 4,1 C 4,3 C 75 % 992,9 hPa 0,0 l/m 33,8 km/h (5 Bft) SW 225 0 min 0,000 mm 0 W/m 0,1 C -8,6 C 74,0 km/h (8 Bft) 100 %
13.01.2017 04:30 3,9 C 3,9 C 4,1 C 75 % 993,1 hPa 0,0 l/m 33,8 km/h (5 Bft) SW 225 0 min 0,000 mm 0 W/m -0,1 C -8,9 C 69,2 km/h (8 Bft) 100 %
13.01.2017 04:40 3,8 C 3,8 C 3,9 C 75 % 993,8 hPa 0,0 l/m 35,4 km/h (5 Bft) SW 225 0 min 0,000 mm 0 W/m -0,2 C -9,4 C 66,0 km/h (8 Bft) 100 %
13.01.2017 04:50 3,6 C 3,6 C 3,8 C 76 % 994,0 hPa 0,0 l/m 37,0 km/h (5 Bft) W-SW 247 0 min 0,000 mm 0 W/m -0,2 C -10,0 C 74,0 km/h (8 Bft) 100 %
13.01.2017 05:00 3,3 C 3,3 C 3,6 C 76 % 994,3 hPa 0,0 l/m 33,8 km/h (5 Bft) W 270 0 min 0,076 mm 0 W/m -0,5 C -9,7 C 62,8 km/h (8 Bft) 91 %
13.01.2017 05:10 3,2 C 3,2 C 3,3 C 75 % 994,3 hPa 0,0 l/m 32,2 km/h (5 Bft) SW 225 0 min 0,000 mm 0 W/m -0,8 C -9,5 C 74,0 km/h (8 Bft) 100 %
13.01.2017 05:20 3,1 C 3,1 C 3,2 C 76 % 994,4 hPa 0,0 l/m 30,6 km/h (5 Bft) SW 225 0 min 0,000 mm 0 W/m -0,7 C -9,2 C 66,0 km/h (8 Bft) 100 %
13.01.2017 05:30 3,1 C 3,1 C 3,1 C 76 % 995,0 hPa 0,0 l/m 37,0 km/h (5 Bft) W-SW 247 0 min 0,000 mm 0 W/m -0,7 C -10,7 C 69,2 km/h (8 Bft) 100 %
13.01.2017 05:40 2,9 C 2,9 C 3,1 C 75 % 995,2 hPa 0,0 l/m 30,6 km/h (5 Bft) SW 225 0 min 0,000 mm 0 W/m -1,1 C -9,5 C 56,3 km/h (7 Bft) 100 %
13.01.2017 05:50 2,8 C 2,8 C 2,9 C 75 % 995,5 hPa 0,0 l/m 35,4 km/h (5 Bft) W-SW 247 0 min 0,000 mm 0 W/m -1,2 C -10,8 C 67,6 km/h (8 Bft) 100 %
13.01.2017 06:00 2,7 C 2,7 C 2,8 C 75 % 995,9 hPa 0,0 l/m 38,6 km/h (5 Bft) W-SW 247 0 min 0,051 mm 0 W/m -1,3 C -11,7 C 90,1 km/h (10 Bft) 100 %
13.01.2017 06:10 2,6 C 2,6 C 2,7 C 76 % 996,2 hPa 0,0 l/m 33,8 km/h (5 Bft) W-SW 247 0 min 0,000 mm 0 W/m -1,2 C -10,7 C 61,2 km/h (7 Bft) 100 %
13.01.2017 06:20 2,4 C 2,4 C 2,6 C 77 % 996,4 hPa 0,0 l/m 30,6 km/h (5 Bft) W-SW 247 0 min 0,000 mm 0 W/m -1,2 C -10,2 C 64,4 km/h (8 Bft) 100 %
13.01.2017 06:30 2,3 C 2,3 C 2,4 C 77 % 996,6 hPa 0,0 l/m 37,0 km/h (5 Bft) W-SW 247 0 min 0,000 mm 0 W/m -1,3 C -11,9 C 69,2 km/h (8 Bft) 100 %
13.01.2017 06:40 2,2 C 2,2 C 2,3 C 78 % 996,9 hPa 0,0 l/m 27,4 km/h (4 Bft) W-SW 247 0 min 0,000 mm 0 W/m -1,2 C -9,5 C 59,5 km/h (7 Bft) 91 %
13.01.2017 06:50 2,1 C 2,1 C 2,2 C 79 % 997,4 hPa 0,0 l/m 27,4 km/h (4 Bft) W-SW 247 0 min 0,000 mm 0 W/m -1,2 C -9,7 C 62,8 km/h (8 Bft) 100 %
13.01.2017 07:00 2,0 C 2,0 C 2,1 C 79 % 998,0 hPa 0,0 l/m 29,0 km/h (5 Bft) W-SW 247 0 min 0,051 mm 0 W/m -1,2 C -10,3 C 64,4 km/h (8 Bft) 100 %
13.01.2017 07:10 1,9 C 1,9 C 2,0 C 79 % 997,9 hPa 0,0 l/m 29,0 km/h (5 Bft) W-SW 247 0 min 0,000 mm 0 W/m -1,3 C -10,4 C 56,3 km/h (7 Bft) 100 %
13.01.2017 07:20 1,9 C 1,9 C 1,9 C 80 % 998,3 hPa 0,0 l/m 27,4 km/h (4 Bft) W 270 0 min 0,000 mm 0 W/m -1,2 C -9,9 C 67,6 km/h (8 Bft) 99 %
13.01.2017 07:30 1,8 C 1,8 C 1,9 C 80 % 998,5 hPa 0,0 l/m 25,7 km/h (4 Bft) W-SW 247 0 min 0,000 mm 0 W/m -1,3 C -9,5 C 53,1 km/h (7 Bft) 100 %
13.01.2017 08:00 1,8 C 1,8 C 1,9 C 79 % 999,4 hPa 0,0 l/m 27,4 km/h (4 Bft) SW 235 0 min 0,051 mm 0 W/m -1,4 C -10,1 C 53,1 km/h (7 Bft) 99 %
13.01.2017 08:10 1,8 C 1,8 C 1,8 C 79 % 999,7 hPa 0,0 l/m 26,8 km/h (4 Bft) W 261 0 min 0,000 mm 0 W/m -1,4 C -9,9 C 56,3 km/h (7 Bft) 100 %
13.01.2017 08:20 1,8 C 1,8 C 1,8 C 79 % 999,9 hPa 0,0 l/m 25,5 km/h (4 Bft) SW 234 0 min 0,000 mm 0 W/m -1,4 C -9,5 C 49,9 km/h (6 Bft) 100 %
13.01.2017 08:30 1,8 C 1,8 C 1,8 C 79 % 1000,4 hPa 0,1 l/m 26,3 km/h (4 Bft) W-NW 299 0 min 0,000 mm 0 W/m -1,4 C -9,7 C 57,9 km/h (7 Bft) 100 %
13.01.2017 08:40 1,7 C 1,7 C 1,8 C 80 % 1000,5 hPa 0,2 l/m 24,4 km/h (4 Bft) W-SW 256 0 min 0,000 mm 0 W/m -1,4 C -9,2 C 45,1 km/h (6 Bft) 91 %
13.01.2017 08:50 1,6 C 1,6 C 1,7 C 80 % 1000,5 hPa 0,1 l/m 22,9 km/h (4 Bft) SW 233 0 min 0,000 mm 5 W/m -1,5 C -8,8 C 43,5 km/h (6 Bft) 100 %
13.01.2017 09:00 1,4 C 1,4 C 1,6 C 82 % 1000,9 hPa 0,2 l/m 24,6 km/h (4 Bft) W-NW 286 0 min 0,051 mm 9 W/m -1,3 C -9,7 C 53,1 km/h (7 Bft) 100 %
13.01.2017 09:10 1,2 C 1,2 C 1,4 C 85 % 1001,4 hPa 0,4 l/m 23,1 km/h (4 Bft) W-SW 242 0 min 0,000 mm 12 W/m -1,0 C -9,4 C 51,5 km/h (7 Bft) 100 %
13.01.2017 09:20 0,6 C 0,6 C 1,2 C 89 % 1001,4 hPa 0,2 l/m 19,8 km/h (3 Bft) W-SW 247 0 min 0,000 mm 16 W/m -1,0 C -8,8 C 40,2 km/h (6 Bft) 100 %
13.01.2017 09:30 0,3 C 0,3 C 0,6 C 91 % 1001,5 hPa 0,4 l/m 20,4 km/h (4 Bft) W 266 0 min 0,000 mm 12 W/m -1,0 C -9,4 C 37,0 km/h (5 Bft) 100 %
13.01.2017 09:40 0,1 C 0,1 C 0,3 C 92 % 1001,3 hPa 0,2 l/m 18,1 km/h (3 Bft) W-NW 287 0 min 0,000 mm 14 W/m -1,0 C -8,6 C 41,8 km/h (6 Bft) 99 %
13.01.2017 09:50 0,1 C 0,0 C 0,1 C 92 % 1001,4 hPa 0,2 l/m 19,3 km/h (3 Bft) W 269 0 min 0,000 mm 18 W/m -1,0 C -9,2 C 40,2 km/h (6 Bft) 100 %
13.01.2017 10:00 0,1 C 0,1 C 0,1 C 92 % 1001,4 hPa 0,2 l/m 16,3 km/h (3 Bft) W-SW 253 0 min 0,025 mm 16 W/m -1,0 C -7,6 C 33,8 km/h (5 Bft) 99 %
13.01.2017 10:10 0,0 C 0,0 C 0,1 C 92 % 1001,6 hPa 0,2 l/m 13,8 km/h (3 Bft) S-SW 212 0 min 0,000 mm 16 W/m -1,1 C -6,2 C 30,6 km/h (5 Bft) 100 %
13.01.2017 10:20 0,0 C 0,0 C 0,1 C 92 % 1001,8 hPa 0,2 l/m 15,5 km/h (3 Bft) W 279 0 min 0,000 mm 18 W/m -1,1 C -7,3 C 33,8 km/h (5 Bft) 100 %
13.01.2017 10:30 -0,1 C -0,1 C 0,0 C 92 % 1002,0 hPa 0,2 l/m 14,5 km/h (3 Bft) W 269 0 min 0,000 mm 16 W/m -1,2 C -6,8 C 30,6 km/h (5 Bft) 100 %
13.01.2017 10:40 0,0 C -0,1 C 0,0 C 92 % 1002,2 hPa 0,1 l/m 8,7 km/h (2 Bft) SW 229 0 min 0,000 mm 19 W/m -1,1 C -2,3 C 20,9 km/h (4 Bft) 100 %
13.01.2017 10:50 0,0 C -0,1 C 0,0 C 92 % 1002,4 hPa 0,1 l/m 11,3 km/h (2 Bft) SW 227 0 min 0,000 mm 21 W/m -1,1 C -4,5 C 27,4 km/h (4 Bft) 91 %
13.01.2017 11:00 0,0 C 0,0 C 0,0 C 92 % 1002,4 hPa 0,1 l/m 11,7 km/h (2 Bft) W-SW 242 0 min 0,026 mm 26 W/m -1,1 C -4,8 C 27,4 km/h (4 Bft) 100 %
13.01.2017 11:10 0,0 C 0,0 C 0,0 C 92 % 1002,2 hPa 0,1 l/m 9,9 km/h (2 Bft) SW 229 0 min 0,000 mm 26 W/m -1,1 C -3,4 C 20,9 km/h (4 Bft) 100 %
13.01.2017 11:20 0,0 C 0,0 C 0,0 C 92 % 1002,3 hPa 0,1 l/m 9,8 km/h (2 Bft) SW 225 0 min 0,000 mm 23 W/m -1,1 C -3,3 C 24,1 km/h (4 Bft) 100 %
13.01.2017 11:30 0,1 C 0,0 C 0,1 C 92 % 1002,4 hPa 0,1 l/m 6,8 km/h (2 Bft) W 271 0 min 0,000 mm 26 W/m -1,0 C -0,3 C 19,3 km/h (3 Bft) 99 %
13.01.2017 11:40 0,1 C 0,1 C 0,1 C 92 % 1002,4 hPa 0,1 l/m 8,8 km/h (2 Bft) SW 233 0 min 0,000 mm 37 W/m -1,0 C -2,3 C 24,1 km/h (4 Bft) 100 %
13.01.2017 11:50 0,2 C 0,1 C 0,2 C 92 % 1002,4 hPa 0,0 l/m 9,2 km/h (2 Bft) W-SW 252 0 min 0,000 mm 26 W/m -0,9 C -2,5 C 24,1 km/h (4 Bft) 100 %
13.01.2017 12:00 0,1 C 0,1 C 0,2 C 92 % 1002,4 hPa 0,1 l/m 8,4 km/h (2 Bft) W-SW 254 0 min 0,025 mm 28 W/m -1,0 C -1,9 C 22,5 km/h (4 Bft) 100 %
13.01.2017 12:10 0,1 C 0,1 C 0,2 C 92 % 1002,5 hPa 0,1 l/m 5,6 km/h (1 Bft) W-SW 238 0 min 0,000 mm 18 W/m -1,0 C 0,1 C 20,9 km/h (4 Bft) 100 %
13.01.2017 12:20 0,1 C 0,1 C 0,2 C 92 % 1002,6 hPa 0,0 l/m 4,6 km/h (1 Bft) SW 221 0 min 0,000 mm 23 W/m -1,0 C 0,1 C 17,7 km/h (3 Bft) 100 %
13.01.2017 12:30 0,1 C 0,1 C 0,1 C 92 % 1002,4 hPa 0,1 l/m 5,3 km/h (1 Bft) W-SW 247 0 min 0,000 mm 21 W/m -1,0 C 0,1 C 19,3 km/h (3 Bft) 100 %
13.01.2017 12:40 0,1 C 0,1 C 0,1 C 92 % 1002,3 hPa 0,1 l/m 4,9 km/h (1 Bft) NW 319 0 min 0,000 mm 25 W/m -1,0 C 0,1 C 16,1 km/h (3 Bft) 100 %
13.01.2017 12:50 0,1 C 0,1 C 0,1 C 92 % 1002,2 hPa 0,0 l/m 6,7 km/h (2 Bft) W 271 0 min 0,000 mm 35 W/m -1,0 C -0,2 C 19,3 km/h (3 Bft) 100 %
13.01.2017 13:00 0,2 C 0,1 C 0,2 C 92 % 1002,3 hPa 0,1 l/m 8,5 km/h (2 Bft) SW 231 0 min 0,000 mm 37 W/m -0,9 C -1,9 C 19,3 km/h (3 Bft) 100 %
13.01.2017 13:10 0,2 C 0,2 C 0,2 C 92 % 1002,2 hPa 0,0 l/m 8,3 km/h (2 Bft) W 262 0 min 0,000 mm 28 W/m -0,9 C -1,7 C 19,3 km/h (3 Bft) 100 %
13.01.2017 13:20 0,3 C 0,2 C 0,3 C 92 % 1002,2 hPa 0,1 l/m 8,0 km/h (2 Bft) W-SW 254 0 min 0,000 mm 23 W/m -0,8 C -1,3 C 20,9 km/h (4 Bft) 100 %
13.01.2017 13:30 0,3 C 0,3 C 0,3 C 92 % 1002,3 hPa 0,0 l/m 7,5 km/h (2 Bft) W 271 0 min 0,000 mm 21 W/m -0,8 C -0,8 C 16,1 km/h (3 Bft) 100 %
13.01.2017 13:40 0,3 C 0,3 C 0,3 C 92 % 1002,4 hPa 0,0 l/m 5,7 km/h (1 Bft) W-SW 254 0 min 0,000 mm 23 W/m -0,8 C 0,3 C 19,3 km/h (3 Bft) 91 %
13.01.2017 13:50 0,4 C 0,3 C 0,4 C 91 % 1002,6 hPa 0,1 l/m 7,0 km/h (2 Bft) W-SW 252 0 min 0,000 mm 23 W/m -0,9 C -0,2 C 24,1 km/h (4 Bft) 100 %
13.01.2017 14:00 0,4 C 0,4 C 0,4 C 90 % 1002,7 hPa 0,0 l/m 9,4 km/h (2 Bft) W-SW 258 0 min 0,025 mm 16 W/m -1,0 C -2,5 C 20,9 km/h (4 Bft) 100 %
13.01.2017 14:10 0,5 C 0,4 C 0,5 C 90 % 1002,8 hPa 0,1 l/m 8,8 km/h (2 Bft) W 263 0 min 0,000 mm 23 W/m -0,9 C -1,9 C 17,7 km/h (3 Bft) 100 %
13.01.2017 14:20 0,6 C 0,5 C 0,6 C 89 % 1002,9 hPa 0,2 l/m 7,2 km/h (2 Bft) W-SW 257 0 min 0,000 mm 35 W/m -1,0 C -0,2 C 20,9 km/h (4 Bft) 99 %
13.01.2017 14:30 0,7 C 0,6 C 0,7 C 89 % 1003,0 hPa 0,1 l/m 5,5 km/h (1 Bft) W 271 0 min 0,000 mm 37 W/m -0,9 C 0,7 C 16,1 km/h (3 Bft) 100 %
13.01.2017 14:40 0,8 C 0,7 C 0,8 C 88 % 1003,1 hPa 0,2 l/m 7,3 km/h (2 Bft) S-SW 210 0 min 0,000 mm 28 W/m -1,0 C -0,1 C 24,1 km/h (4 Bft) 100 %
13.01.2017 14:50 0,7 C 0,7 C 0,8 C 88 % 1003,5 hPa 0,1 l/m 11,1 km/h (2 Bft) W-SW 242 0 min 0,000 mm 18 W/m -1,1 C -3,5 C 27,4 km/h (4 Bft) 100 %
13.01.2017 15:00 0,5 C 0,5 C 0,7 C 89 % 1003,6 hPa 0,1 l/m 14,6 km/h (3 Bft) W-NW 303 0 min 0,000 mm 16 W/m -1,1 C -6,1 C 30,6 km/h (5 Bft) 100 %
13.01.2017 15:10 0,3 C 0,3 C 0,5 C 91 % 1003,7 hPa 0,1 l/m 10,1 km/h (2 Bft) W-SW 245 0 min 0,025 mm 14 W/m -1,0 C -3,2 C 22,5 km/h (4 Bft) 100 %
13.01.2017 15:20 0,1 C 0,1 C 0,3 C 91 % 1003,8 hPa 0,0 l/m 9,5 km/h (2 Bft) SW 236 0 min 0,001 mm 12 W/m -1,2 C -2,9 C 19,3 km/h (3 Bft) 100 %
13.01.2017 15:30 -0,1 C -0,1 C 0,1 C 92 % 1003,8 hPa 0,1 l/m 6,5 km/h (2 Bft) W-SW 241 0 min 0,000 mm 9 W/m -1,2 C -0,2 C 16,1 km/h (3 Bft) 100 %
13.01.2017 15:40 -0,2 C -0,2 C -0,1 C 92 % 1003,9 hPa 0,0 l/m 8,0 km/h (2 Bft) S-SW 203 0 min 0,000 mm 5 W/m -1,3 C -1,9 C 19,3 km/h (3 Bft) 100 %
13.01.2017 15:50 -0,2 C -0,2 C -0,1 C 92 % 1003,9 hPa 0,0 l/m 7,3 km/h (2 Bft) SW 219 0 min 0,000 mm 7 W/m -1,3 C -1,1 C 14,5 km/h (3 Bft) 100 %
13.01.2017 16:00 -0,2 C -0,2 C -0,1 C 92 % 1004,0 hPa 0,0 l/m 8,3 km/h (2 Bft) SW 214 0 min 0,000 mm 0 W/m -1,3 C -2,1 C 17,7 km/h (3 Bft) 100 %
13.01.2017 16:10 -0,1 C -0,2 C -0,1 C 92 % 1004,1 hPa 0,0 l/m 9,4 km/h (2 Bft) SW 216 0 min 0,000 mm 0 W/m -1,2 C -3,0 C 17,7 km/h (3 Bft) 100 %
13.01.2017 16:20 -0,1 C -0,1 C -0,1 C 92 % 1004,3 hPa 0,0 l/m 7,5 km/h (2 Bft) W-SW 248 0 min 0,000 mm 0 W/m -1,2 C -1,2 C 16,1 km/h (3 Bft) 100 %
13.01.2017 16:30 -0,1 C -0,1 C 0,0 C 91 % 1004,3 hPa 0,0 l/m 5,8 km/h (2 Bft) W-SW 256 0 min 0,000 mm 0 W/m -1,4 C -0,1 C 14,5 km/h (3 Bft) 91 %
13.01.2017 16:40 0,1 C -0,1 C 0,1 C 90 % 1004,3 hPa 0,0 l/m 10,4 km/h (2 Bft) SW 224 0 min 0,000 mm 0 W/m -1,3 C -3,7 C 22,5 km/h (4 Bft) 100 %
13.01.2017 16:50 0,2 C 0,1 C 0,2 C 90 % 1004,5 hPa 0,0 l/m 9,9 km/h (2 Bft) W-NW 283 0 min 0,000 mm 0 W/m -1,2 C -3,1 C 20,9 km/h (4 Bft) 100 %
13.01.2017 17:00 0,3 C 0,2 C 0,3 C 89 % 1004,5 hPa 0,0 l/m 10,4 km/h (2 Bft) W 260 0 min 0,000 mm 0 W/m -1,3 C -3,4 C 24,1 km/h (4 Bft) 100 %
13.01.2017 17:10 0,3 C 0,3 C 0,3 C 88 % 1004,7 hPa 0,0 l/m 7,5 km/h (2 Bft) W-SW 252 0 min 0,000 mm 0 W/m -1,4 C -0,8 C 19,3 km/h (3 Bft) 100 %
13.01.2017 17:20 0,4 C 0,3 C 0,4 C 88 % 1004,8 hPa 0,0 l/m 10,4 km/h (2 Bft) W 259 0 min 0,000 mm 0 W/m -1,3 C -3,3 C 19,3 km/h (3 Bft) 92 %
13.01.2017 17:30 0,4 C 0,4 C 0,4 C 88 % 1004,9 hPa 0,0 l/m 10,2 km/h (2 Bft) W 259 0 min 0,000 mm 0 W/m -1,3 C -3,2 C 24,1 km/h (4 Bft) 100 %
13.01.2017 17:40 0,4 C 0,4 C 0,4 C 88 % 1005,0 hPa 0,0 l/m 10,4 km/h (2 Bft) W-SW 244 0 min 0,000 mm 0 W/m -1,3 C -3,3 C 24,1 km/h (4 Bft) 100 %
13.01.2017 17:50 0,3 C 0,3 C 0,4 C 88 % 1005,1 hPa 0,0 l/m 13,4 km/h (3 Bft) W-SW 250 0 min 0,000 mm 0 W/m -1,4 C -5,6 C 29,0 km/h (5 Bft) 100 %
13.01.2017 18:00 0,3 C 0,3 C 0,3 C 87 % 1005,1 hPa 0,0 l/m 12,1 km/h (2 Bft) W-SW 258 0 min 0,000 mm 0 W/m -1,6 C -4,7 C 25,7 km/h (4 Bft) 100 %
13.01.2017 18:10 0,2 C 0,2 C 0,3 C 87 % 1005,2 hPa 0,0 l/m 11,2 km/h (2 Bft) W 269 0 min 0,000 mm 0 W/m -1,7 C -4,2 C 27,4 km/h (4 Bft) 100 %
13.01.2017 18:20 0,2 C 0,2 C 0,2 C 87 % 1005,2 hPa 0,0 l/m 12,0 km/h (2 Bft) W-SW 258 0 min 0,000 mm 0 W/m -1,7 C -4,8 C 32,2 km/h (5 Bft) 99 %
13.01.2017 18:30 0,1 C 0,1 C 0,2 C 87 % 1005,3 hPa 0,0 l/m 10,3 km/h (2 Bft) NW 314 0 min 0,000 mm 0 W/m -1,8 C -3,6 C 24,1 km/h (4 Bft) 100 %
13.01.2017 18:40 0,1 C 0,1 C 0,1 C 87 % 1005,5 hPa 0,0 l/m 7,0 km/h (2 Bft) W 276 0 min 0,000 mm 0 W/m -1,8 C -0,5 C 17,7 km/h (3 Bft) 100 %
13.01.2017 18:50 0,1 C 0,1 C 0,1 C 86 % 1005,5 hPa 0,0 l/m 6,2 km/h (2 Bft) W 280 0 min 0,000 mm 0 W/m -2,0 C 0,1 C 19,3 km/h (3 Bft) 100 %
13.01.2017 19:00 -0,1 C -0,1 C 0,1 C 86 % 1005,6 hPa 0,0 l/m 7,1 km/h (2 Bft) W-SW 243 0 min 0,000 mm 0 W/m -2,2 C -0,8 C 17,7 km/h (3 Bft) 100 %
13.01.2017 19:10 -0,2 C -0,2 C -0,1 C 85 % 1005,5 hPa 0,0 l/m 5,0 km/h (1 Bft) W-SW 257 0 min 0,000 mm 0 W/m -2,4 C -0,2 C 17,7 km/h (3 Bft) 100 %
13.01.2017 19:20 -0,4 C -0,4 C -0,2 C 85 % 1005,6 hPa 0,0 l/m 3,2 km/h (1 Bft) W-SW 238 0 min 0,000 mm 0 W/m -2,6 C -0,4 C 16,1 km/h (3 Bft) 91 %
13.01.2017 19:30 -0,6 C -0,6 C -0,4 C 86 % 1005,6 hPa 0,0 l/m 5,3 km/h (1 Bft) S-SW 210 0 min 0,000 mm 0 W/m -2,6 C -0,6 C 17,7 km/h (3 Bft) 100 %
13.01.2017 19:40 -0,8 C -0,8 C -0,6 C 87 % 1005,5 hPa 0,0 l/m 2,4 km/h (1 Bft) S-SW 193 0 min 0,000 mm 0 W/m -2,7 C -0,8 C 14,5 km/h (3 Bft) 100 %
13.01.2017 19:50 -0,9 C -0,9 C -0,8 C 88 % 1005,6 hPa 0,0 l/m 5,1 km/h (1 Bft) S-SW 205 0 min 0,000 mm 0 W/m -2,6 C -0,9 C 14,5 km/h (3 Bft) 100 %
13.01.2017 20:00 -1,0 C -1,0 C -0,9 C 88 % 1005,5 hPa 0,0 l/m 6,9 km/h (2 Bft) SW 216 0 min 0,000 mm 0 W/m -2,7 C -1,5 C 16,1 km/h (3 Bft) 91 %
13.01.2017 20:10 -1,0 C -1,0 C -1,0 C 88 % 1005,5 hPa 0,0 l/m 7,7 km/h (2 Bft) S-SW 213 0 min 0,000 mm 0 W/m -2,7 C -2,4 C 16,1 km/h (3 Bft) 100 %
13.01.2017 20:20 -1,0 C -1,1 C -1,0 C 88 % 1005,5 hPa 0,0 l/m 7,2 km/h (2 Bft) SW 226 0 min 0,000 mm 0 W/m -2,7 C -1,9 C 22,5 km/h (4 Bft) 100 %
13.01.2017 20:30 -1,1 C -1,1 C -1,0 C 88 % 1005,6 hPa 0,0 l/m 6,5 km/h (2 Bft) SW 230 0 min 0,000 mm 0 W/m -2,8 C -1,2 C 17,7 km/h (3 Bft) 100 %
13.01.2017 20:40 -1,1 C -1,2 C -1,0 C 88 % 1005,7 hPa 0,0 l/m 7,5 km/h (2 Bft) W-SW 255 0 min 0,000 mm 0 W/m -2,8 C -2,3 C 24,1 km/h (4 Bft) 91 %
13.01.2017 20:50 -1,2 C -1,2 C -1,1 C 87 % 1005,7 hPa 0,0 l/m 9,5 km/h (2 Bft) W 261 0 min 0,000 mm 0 W/m -3,1 C -4,3 C 27,4 km/h (4 Bft) 100 %
13.01.2017 21:00 -1,2 C -1,2 C -1,2 C 88 % 1005,6 hPa 0,0 l/m 6,5 km/h (2 Bft) SW 223 0 min 0,000 mm 0 W/m -2,9 C -1,3 C 19,3 km/h (3 Bft) 100 %
13.01.2017 21:10 -1,3 C -1,3 C -1,2 C 88 % 1005,6 hPa 0,0 l/m 8,0 km/h (2 Bft) W-SW 247 0 min 0,000 mm 0 W/m -3,0 C -3,0 C 24,1 km/h (4 Bft) 100 %
13.01.2017 21:20 -1,3 C -1,3 C -1,3 C 88 % 1005,6 hPa 0,0 l/m 8,0 km/h (2 Bft) W-SW 247 0 min 0,000 mm 0 W/m -3,0 C -3,0 C 20,9 km/h (4 Bft) 100 %
13.01.2017 21:30 -1,3 C -1,3 C -1,3 C 89 % 1005,5 hPa 0,0 l/m 8,0 km/h (2 Bft) W-SW 247 0 min 0,000 mm 0 W/m -2,9 C -3,0 C 24,1 km/h (4 Bft) 100 %
13.01.2017 21:40 -1,3 C -1,3 C -1,3 C 89 % 1005,6 hPa 0,0 l/m 6,4 km/h (2 Bft) SW 225 0 min 0,000 mm 0 W/m -2,9 C -1,3 C 19,3 km/h (3 Bft) 100 %
13.01.2017 21:50 -1,3 C -1,3 C -1,2 C 89 % 1005,6 hPa 0,0 l/m 6,4 km/h (2 Bft) SW 225 0 min 0,000 mm 0 W/m -2,9 C -1,3 C 20,9 km/h (4 Bft) 100 %
13.01.2017 22:00 -1,1 C -1,3 C -1,1 C 89 % 1005,4 hPa 0,0 l/m 6,4 km/h (2 Bft) SW 225 0 min 0,000 mm 0 W/m -2,7 C -1,1 C 19,3 km/h (3 Bft) 100 %
13.01.2017 22:10 -0,9 C -1,1 C -0,9 C 89 % 1005,3 hPa 0,0 l/m 8,0 km/h (2 Bft) SW 225 0 min 0,000 mm 0 W/m -2,5 C -2,6 C 19,3 km/h (3 Bft) 100 %
13.01.2017 22:20 -0,9 C -0,9 C -0,8 C 89 % 1005,2 hPa 0,0 l/m 6,4 km/h (2 Bft) SW 225 0 min 0,000 mm 0 W/m -2,5 C -0,9 C 16,1 km/h (3 Bft) 100 %
13.01.2017 22:30 -0,8 C -0,9 C -0,8 C 89 % 1005,1 hPa 0,0 l/m 9,7 km/h (2 Bft) SW 225 0 min 0,000 mm 0 W/m -2,4 C -4,1 C 24,1 km/h (4 Bft) 100 %
13.01.2017 22:40 -0,6 C -0,8 C -0,6 C 88 % 1005,0 hPa 0,0 l/m 11,3 km/h (2 Bft) S-SW 202 0 min 0,000 mm 0 W/m -2,3 C -5,2 C 22,5 km/h (4 Bft) 100 %
13.01.2017 22:50 -0,6 C -0,6 C -0,5 C 88 % 1005,1 hPa 0,0 l/m 6,4 km/h (2 Bft) SW 225 0 min 0,000 mm 0 W/m -2,3 C -0,6 C 20,9 km/h (4 Bft) 100 %
13.01.2017 23:00 -0,4 C -0,6 C -0,4 C 88 % 1005,0 hPa 0,0 l/m 8,0 km/h (2 Bft) SW 225 0 min 0,000 mm 0 W/m -2,1 C -2,1 C 20,9 km/h (4 Bft) 100 %
13.01.2017 23:10 -0,3 C -0,4 C -0,3 C 87 % 1005,1 hPa 0,0 l/m 4,8 km/h (1 Bft) SW 225 0 min 0,000 mm 0 W/m -2,2 C -0,3 C 11,3 km/h (2 Bft) 100 %
13.01.2017 23:20 -0,3 C -0,3 C -0,3 C 87 % 1005,0 hPa 0,0 l/m 8,0 km/h (2 Bft) S-SW 202 0 min 0,000 mm 0 W/m -2,2 C -2,0 C 16,1 km/h (3 Bft) 100 %
13.01.2017 23:30 -0,2 C -0,3 C -0,2 C 86 % 1005,0 hPa 0,0 l/m 8,0 km/h (2 Bft) S-SW 202 0 min 0,000 mm 0 W/m -2,3 C -1,9 C 17,7 km/h (3 Bft) 90 %
13.01.2017 23:40 -0,2 C -0,2 C -0,2 C 86 % 1005,0 hPa 0,0 l/m 9,7 km/h (2 Bft) S-SW 202 0 min 0,000 mm 0 W/m -2,3 C -3,4 C 20,9 km/h (4 Bft) 99 %
13.01.2017 23:50 -0,3 C -0,3 C -0,2 C 86 % 1004,7 hPa 0,0 l/m 8,0 km/h (2 Bft) S-SW 202 0 min 0,000 mm 0 W/m -2,3 C -2,0 C 16,1 km/h (3 Bft) 100 %
_ Min-Zeit 21:10 21:10 21:20 03:20 00:50 - 19:40 - - - - - 20:50 06:30 23:10 01:00
Minimum _ -1,3 C -1,3 C -1,3 C 74 % 991,1 hPa - 2,4 km/h (1 Bft) - - - - - -3,1 C -11,9 C 11,3 km/h (2 Bft) 90 %
_ Max-Zeit 01:40 01:50 01:40 00:00 20:40 09:10 04:10 - - 00:00 04:00 11:40 01:40 14:30 06:00 00:00
Maximum _ 4,9 C 4,9 C 4,9 C 93 % 1005,7 hPa 0,4 l/m 45,1 km/h
SW (6 Bft)
- - 0 min 0,076 mm 37 W/m 3,6 C 0,7 C 90,1 km/h
S-SW (10 Bft)
100 %
Durchschnitt _ 1,2 C 1,2 C 1,3 C 86 % 1000,4 hPa #5,6 l/m 16,7 km/h (3 Bft) SW - #0 min. #0,559 mm 20 W/m -0,9 C -4,7 C 36,2 km/h (5 Bft) 99 %
PRIVATE WETTERSTATION BILLIGHEIM-ALLFELD - www.neckar-odenwald-wetter.de - Holger Sonntag